• Join FlightAware (Why Join?)
  • Login
  • US Flag 
04:09AM EDT


 

Airport Tracker/Info


-or-


 

Live Flight TrackerFlight Track Log ✈ DAL2191 ✈ 28-Jul-2013 ✈ KATL - KTPA

Flight Track Log - Related Links

Times and Time Zones

All times are in EDT time to prevent confusion due to time zone crossing. See the DAL2191 flight status page for this flight to view local times or setup timezone preferences in your user account.

Time Position Orientation Groundspeed Altitude Reporting Facility
EDT Latitude Longitude Course Direction KTS MPH feet Rate Location/Type
12:51PM 33.6347 -84.4831 199° South 457 526 2,500  Level Atlanta Center
12:52PM 33.6344 -84.5653 270° West 375 432 4,700 2,400 Climbing Atlanta Center
12:53PM 33.5675 -84.5947 200° South 289 333 7,400 2,640 Climbing Atlanta Center
12:54PM 33.3380 -84.2994 194° South  Level FlightAware Approximate
12:54PM 33.4822 -84.5742 169° South 314 361 10,000  Level Atlanta Center
12:55PM 33.2087 -84.3372 194° South  Level FlightAware Approximate
12:55PM 33.3778 -84.5464 167° South 382 440 11,400  Level Atlanta Center
12:56PM 33.0793 -84.3748 194° South  Level FlightAware Approximate
12:56PM 33.2819 -84.5183 166° South 403 464 13,700  Level Atlanta Center
12:57PM 32.9516 -84.4160 199° South  Level FlightAware Approximate
12:57PM 33.1714 -84.4881 167° South 403 464 16,000  Level Atlanta Center
12:58PM 33.0589 -84.4553 166° South 414 476 17,900 1,860 Climbing Atlanta Center
12:59PM 32.9400 -84.4300 170° South 422 486 19,800 1,740 Climbing Atlanta Center
01:00PM 32.8083 -84.4244 178° South 428 493 21,400 1,500 Climbing Atlanta Center
01:01PM 32.6958 -84.4189 178° South 440 506 22,800 1,320 Climbing Atlanta Center
01:02PM 32.5683 -84.4158 179° South 447 514 24,100 1,080 Climbing Atlanta Center
01:03PM 32.4347 -84.4128 179° South 466 536 25,000 420 Climbing Atlanta Center
01:04PM 32.3014 -84.4100 179° South 478 550 25,000 900 Level Atlanta Center
01:05PM 32.1697 -84.4069 179° South 478 550 26,900 1,560 Climbing Atlanta Center
01:06PM 32.0403 -84.4039 179° South 473 544 28,200 840 Climbing Atlanta Center
01:08PM 31.8256 -84.4014 179° South 470 541 29,000 300 Climbing Jacksonville Center
01:09PM 31.6878 -84.3967 178° South 482 555 29,000  Level Jacksonville Center
01:10PM 31.5525 -84.3772 173° South 493 567 29,000  Level Jacksonville Center
01:11PM 31.4192 -84.3411 167° South 498 573 29,000 -300 Level Jacksonville Center
01:12PM 31.2839 -84.3000 165° South 503 579 28,500 -780 Descending Jacksonville Center
01:13PM 31.1528 -84.2642 167° South 503 579 27,500 -780 Descending Jacksonville Center
01:14PM 31.0217 -84.2283 167° South 487 560 27,000 -300 Descending Jacksonville Center
01:15PM 30.8947 -84.1903 166° South 487 560 27,000  Level Jacksonville Center
01:16PM 30.7656 -84.1547 167° South 487 560 27,000  Level Jacksonville Center
01:17PM 30.6322 -84.1167 166° South 487 560 27,000  Level Jacksonville Center
01:18PM 30.5053 -84.0836 167° South 487 560 27,000  Level Jacksonville Center
01:19PM 30.3700 -84.0458 166° South 487 560 27,000 -60 Level Jacksonville Center
01:20PM 30.2386 -84.0106 167° South 487 560 26,900  Descending Jacksonville Center
01:21PM 30.1136 -83.9756 166° South 482 555 27,000  Climbing Jacksonville Center
01:22PM 29.9886 -83.9406 166° South 471 542 27,000  Level Jacksonville Center
01:23PM 29.8617 -83.9081 167° South 466 536 27,000  Level Jacksonville Center
01:24PM 29.7453 -83.8494 156° South 466 536 27,000  Level Jacksonville Center
01:25PM 29.6331 -83.7767 151° Southeast 461 531 27,000 -120 Level Jacksonville Center
01:26PM 29.5247 -83.7064 151° Southeast 456 525 26,800 -600 Descending Jacksonville Center
01:27PM 29.4250 -83.6411 150° Southeast 456 525 25,900 -1,020 Descending Jacksonville Center
01:28PM 29.3189 -83.5739 151° Southeast 451 519 24,800 -960 Descending Jacksonville Center
01:29PM 29.2150 -83.5042 150° Southeast 445 512 24,000 -480 Descending Jacksonville Center
01:30PM 29.1131 -83.4392 151° Southeast 433 498 23,900 -240 Descending Jacksonville Center
01:31PM 29.0131 -83.3769 151° Southeast 426 490 23,600 -1,200 Descending Jacksonville Center
01:32PM 28.9111 -83.3100 150° Southeast 421 484 21,600 -2,040 Descending Jacksonville Center
01:33PM 28.8153 -83.2481 150° Southeast 410 472 19,600 -2,040 Descending Jacksonville Center
01:34PM 28.7192 -83.1908 152° Southeast 398 458 17,600 -1,920 Descending Jacksonville Center
01:35PM 28.6317 -83.1361 151° Southeast 383 441 15,800 -1,740 Descending Jacksonville Center
01:36PM 28.5000 -83.0500 150° Southeast 360 414 13,600 -1,440 Descending Tampa TRACON
01:37PM 28.4167 -83.0000 152° Southeast 346 398 12,600 -1,260 Descending Tampa TRACON
01:38PM 28.3500 -82.9500 147° Southeast 314 361 11,100 -1,860 Descending Tampa TRACON
01:39PM 28.2833 -82.9000 147° Southeast 299 344 8,900 -2,100 Descending Tampa TRACON
01:40PM 28.2667 -82.8000 101° East 287 330 6,800 -1,500 Descending Tampa TRACON
01:41PM 28.2333 -82.7333 120° Southeast 281 323 5,800 -1,440 Descending Tampa TRACON
01:42PM 28.2000 -82.6500 114° Southeast 277 319 4,000 -1,320 Descending Tampa TRACON
01:43PM 28.1833 -82.5833 106° East 234 269 3,200 -600 Descending Tampa TRACON
01:44PM 28.1333 -82.5333 139° Southeast 201 231 2,900 -720 Descending Tampa TRACON
01:45PM 28.0833 -82.5333 180° South 189 217 1,800 -960 Descending Tampa TRACON
01:46PM 28.0500 -82.5333 180° South 158 182 1,100 -780 Descending Tampa TRACON
01:47PM 28.0000 -82.5333 180° South 144 166 400 -720 Descending Tampa TRACON